Nearby METAR Reports



KADS - Dallas/Addison, Texas, USA
Distance from station: SSW 10mi, 16km
Updated: Tue, 29-Nov-2022 6:47pm CST
Clear
Clear
 Wind from WNW
Wind: WNW 3 mph , 6 km/h
Temperature: 70°F , 21°C
Dew Point: 52°F , 11°C
Humidity: 53%
Barometer: 29.74 inHg , 1007.1 hPa
Clouds: Clear
Visibility: 13 miles , 21 km
2022/11/30 00:47 KADS 300047Z 30003KT 13SM SKC 21/11 A2974
KTKI - Mckinney, Texas, USA
Distance from station: ENE 11mi, 18km
Updated: Tue, 29-Nov-2022 5:53pm CST
Clear
Clear
 Wind from SW
Wind: SW 5 mph , 7 km/h
Temperature: 73°F , 23°C
Dew Point: 54°F , 12°C
Humidity: 50%
Barometer: 29.71 inHg , 1006.1 hPa
Clouds: Clear
Visibility: 10 miles , 16 km
2022/11/29 23:53 KTKI 292353Z 23004KT 10SM CLR 23/12 A2971 RMK AO2 SLP061 T02280122 10256 20228 53012
 
KDAL - Dallas/Love Fld, Texas, USA
Distance from station: SSW 18mi, 30km
Updated: Tue, 29-Nov-2022 5:53pm CST
Few Clouds
Few Clouds
 Wind from calm
Wind: Calm
Temperature: 73°F , 23°C
Dew Point: 52°F , 11°C
Humidity: 47%
Barometer: 29.71 inHg , 1006.1 hPa
Clouds: Few Clouds
Visibility: 10 miles , 16 km
Cloud details: Few Clouds 6000 ft
2022/11/29 23:53 KDAL 292353Z 00000KT 10SM FEW060 23/11 A2971 RMK AO2 SLP055 T02330106 10267 20228 53014
KDFW - Dallas/Ft Worth, Texas, USA
Distance from station: SW 21mi, 34km
Updated: Tue, 29-Nov-2022 5:53pm CST
Few Clouds
Few Clouds
 Wind from WSW
Wind: WSW 7 mph , 11 km/h
Temperature: 73°F , 23°C
Dew Point: 52°F , 11°C
Humidity: 47%
Barometer: 29.70 inHg , 1005.8 hPa
Clouds: Few Clouds
Visibility: 10 miles , 16 km
Cloud details: Few Clouds 4000 ft
2022/11/29 23:53 KDFW 292353Z 24006KT 10SM FEW040 23/11 A2970 RMK AO2 SLP051 T02330111 10272 20222 53014
 
KF46 - Rockwall, Texas, USA
Distance from station: ESE 22mi, 35km
Updated: Tue, 29-Nov-2022 6:35pm CST
Clear
Clear
 Wind from calm
Wind: Calm
Temperature: 68°F , 20°C
Dew Point: 57°F , 14°C
Humidity: 69%
Barometer: 29.73 inHg , 1006.8 hPa
Clouds: Clear
Visibility: 10 miles , 16 km
2022/11/30 00:35 KF46 300035Z AUTO 00000KT 10SM CLR 20/14 A2973 RMK AO2 T01970136
KDTO - Denton, Texas, USA
Distance from station: WNW 27mi, 43km
Updated: Tue, 29-Nov-2022 5:53pm CST
Clear
Clear
 Wind from NW
Wind: NW 12 mph , 19 km/h, Gust: 20 mph , 31 km/h
Temperature: 72°F , 22°C
Dew Point: 43°F , 6°C
Humidity: 36%
Barometer: 29.73 inHg , 1006.8 hPa
Clouds: Clear
Visibility: 10 miles , 16 km
2022/11/29 23:53 KDTO 292353Z 32010G17KT 10SM CLR 22/06 A2973 RMK AO2 SLP062 T02170061 10267 20200 53023
 
KHQZ - Mesquite, Texas, USA
Distance from station: SSE 28mi, 44km
Updated: Tue, 29-Nov-2022 5:50pm CST
Clear
Clear
 Wind from calm
Wind: Calm
Temperature: 73°F , 23°C
Dew Point: 55°F , 13°C
Humidity: 53%
Barometer: 29.71 inHg , 1006.1 hPa
Clouds: Clear
Visibility: 10 miles , 16 km
2022/11/29 23:50 KHQZ 292350Z 00000KT 10SM CLR 23/13 A2971
KRBD - Dallas/Redbird, Texas, USA
Distance from station: SSW 30mi, 48km
Updated: Tue, 29-Nov-2022 5:53pm CST
Clear
Clear
 Wind from WSW
Wind: WSW 5 mph , 7 km/h
Temperature: 72°F , 22°C
Dew Point: 54°F , 12°C
Humidity: 53%
Barometer: 29.71 inHg , 1006.1 hPa
Clouds: Clear
Visibility: 10 miles , 16 km
2022/11/29 23:53 KRBD 292353Z 24004KT 10SM CLR 22/12 A2971 RMK AO2 SLP055 T02220122 10261 20222 53013
 
KGPM - Grand Prairie, Texas, USA
Distance from station: SSW 33mi, 53km
Updated: Tue, 29-Nov-2022 6:35pm CST
Clear
Clear
 Wind from WSW
Wind: WSW 3 mph , 6 km/h
Temperature: 72°F , 22°C
Dew Point: 54°F , 12°C
Humidity: 53%
Barometer: 29.75 inHg , 1007.5 hPa
Clouds: Clear
Visibility: 10 miles , 16 km
2022/11/30 00:35 KGPM 300035Z AUTO 25003KT 10SM CLR 22/12 A2975 RMK AO2 T02220119
KAFW - Ft Worth/Allianc, Texas, USA
Distance from station: WSW 34mi, 55km
Updated: Tue, 29-Nov-2022 5:53pm CST
Clear
Clear
 Wind from W
Wind: W 6 mph , 9 km/h
Temperature: 72°F , 22°C
Dew Point: 45°F , 7°C
Humidity: 38%
Barometer: 29.72 inHg , 1006.4 hPa
Clouds: Clear
Visibility: 10 miles , 16 km
2022/11/29 23:53 KAFW 292353Z 26005KT 10SM CLR 22/07 A2972 RMK AO2 SLP056 T02220072 10267 20217 53020
 
KLNC - Lancaster, Texas, USA
Distance from station: S 36mi, 58km
Updated: Tue, 29-Nov-2022 6:35pm CST
Clear
Clear
 Wind from calm
Wind: Calm
Temperature: 70°F , 21°C
Dew Point: 55°F , 13°C
Humidity: 60%
Barometer: 29.74 inHg , 1007.1 hPa
Clouds: Clear
Visibility: 10 miles , 16 km
2022/11/30 00:35 KLNC 300035Z AUTO 00000KT 10SM CLR 21/13 A2974 RMK AO2 T02100128
KGKY - Arlington, Texas, USA
Distance from station: SSW 36mi, 59km
Updated: Tue, 29-Nov-2022 5:53pm CST
Clear
Clear
 Wind from calm
Wind: Calm
Temperature: 66°F , 19°C
Dew Point: 55°F , 13°C
Humidity: 68%
Barometer: 29.72 inHg , 1006.4 hPa
Clouds: Clear
Visibility: 10 miles , 16 km
2022/11/29 23:53 KGKY 292353Z 00000KT 10SM CLR 19/13 A2972 RMK AO2 SLP058 T01890128 10272 20189 53015
 
KTRL - Terrell, Texas, USA
Distance from station: SE 39mi, 63km
Updated: Tue, 29-Nov-2022 5:53pm CST
Clear
Clear
 Wind from calm
Wind: Calm
Temperature: 72°F , 22°C
Dew Point: 61°F , 16°C
Humidity: 69%
Barometer: 29.71 inHg , 1006.1 hPa
Clouds: Clear
Visibility: 10 miles , 16 km
2022/11/29 23:53 KTRL 292353Z AUTO 00000KT 10SM CLR 22/16 A2971 RMK AO2 SLP057 T02220156 10267 20217 53013
KGVT - Greenville/Major, Texas, USA
Distance from station: E 40mi, 64km
Updated: Tue, 29-Nov-2022 6:35pm CST
Partly cloudy
Partly cloudy
 Wind from SW
Wind: SW 5 mph , 7 km/h
Temperature: 64°F , 18°C
Dew Point: 55°F , 13°C
Humidity: 73%
Barometer: 29.73 inHg , 1006.8 hPa
Clouds: Partly cloudy
Visibility: 10 miles , 16 km
Cloud details: Partly cloudy 7000 ft
2022/11/30 00:35 KGVT 300035Z AUTO 22004KT 10SM SCT070 18/13 A2973 RMK AO2 TSNO T01800132
 
KFTW - Fort Worth, Texas, USA
Distance from station: WSW 40mi, 65km
Updated: Tue, 29-Nov-2022 5:53pm CST
Clear
Clear
 Wind from W
Wind: W 5 mph , 7 km/h
Temperature: 72°F , 22°C
Dew Point: 52°F , 11°C
Humidity: 50%
Barometer: 29.71 inHg , 1006.1 hPa
Clouds: Clear
Visibility: 10 miles , 16 km
2022/11/29 23:53 KFTW 292353Z 27004KT 10SM CLR 22/11 A2971 RMK AO2 SLP055 T02220111 10261 20211 53017
KGYI - Sherman/Denison, Texas, USA
Distance from station: N 43mi, 69km
Updated: Tue, 29-Nov-2022 5:50pm CST
Clear
Clear
 Wind from NW
Wind: NW 9 mph , 15 km/h
Temperature: 68°F , 20°C
Dew Point: 45°F , 7°C
Humidity: 43%
Barometer: 29.75 inHg , 1007.5 hPa
Clouds: Clear
Visibility: 10 miles , 16 km
2022/11/29 23:50 KGYI 292350Z 31008KT 10SM CLR 20/07 A2975
 
KNFW - Fort Worth Nas, Texas, USA
Distance from station: WSW 45mi, 73km
Updated: Tue, 29-Nov-2022 5:52pm CST
Clear
Clear
 Wind from WSW
Wind: WSW 6 mph , 9 km/h
Temperature: 72°F , 22°C
Dew Point: 52°F , 11°C
Humidity: 50%
Barometer: 29.72 inHg , 1006.4 hPa
Clouds: Clear
Visibility: 10 miles , 16 km
2022/11/29 23:52 KNFW 292352Z 25005KT 10SM CLR 22/11 A2972 RMK AO2 SLP049 T02170106 10267 20206 53016 $
KGLE - Gainesville, Texas, USA
Distance from station: NW 46mi, 74km
Updated: Tue, 29-Nov-2022 6:35pm CST
Clear
Clear
 Wind from N
Wind: N 22 mph , 35 km/h, Gust: 28 mph , 44 km/h
Temperature: 55°F , 13°C
Dew Point: 37°F , 3°C
Humidity: 51%
Barometer: 29.83 inHg , 1010.2 hPa
Clouds: Clear
Visibility: 10 miles , 16 km
2022/11/30 00:35 KGLE 300035Z AUTO 36019G24KT 10SM CLR 13/03 A2983 RMK AO2 T01270033 PWINO
 
KJWY - Midlothian/Wax, Texas, USA
Distance from station: SSW 46mi, 74km
Updated: Tue, 29-Nov-2022 6:35pm CST
Clear
Clear
 Wind from calm
Wind: Calm
Temperature: 68°F , 20°C
Dew Point: 52°F , 11°C
Humidity: 56%
Barometer: 29.75 inHg , 1007.5 hPa
Clouds: Clear
Visibility: 10 miles , 16 km
2022/11/30 00:35 KJWY 300035Z AUTO 00000KT 10SM CLR 20/11 A2975 RMK AO2 T01980110
KFWS - Fort Worth/88d, Texas, USA
Distance from station: SW 49mi, 79km
Updated: Tue, 29-Nov-2022 5:47pm CST
Clear
Clear
 Wind from S
Wind: S 3 mph , 6 km/h
Temperature: 68°F , 20°C
Dew Point: 52°F , 11°C
Humidity: 56%
Barometer: 29.73 inHg , 1006.8 hPa
Clouds: Clear
Visibility: 10 miles , 16 km
2022/11/29 23:47 KFWS 292347Z 19003KT 10SM CLR 20/11 A2973